createdAt,value
2023-01-11T00:00:56.120Z,2.42
2023-01-11T00:03:23.630Z,2.35
2023-01-11T00:05:56.082Z,2.30
2023-01-11T00:08:24.964Z,2.30
2023-01-11T00:10:52.901Z,2.20
2023-01-11T00:13:20.370Z,2.20
2023-01-11T00:15:47.834Z,2.17
2023-01-11T00:18:15.251Z,2.14
2023-01-11T00:20:42.545Z,2.13
2023-01-11T00:23:10.022Z,2.13
2023-01-11T00:25:37.853Z,2.04
2023-01-11T00:28:06.062Z,2.04
2023-01-11T00:30:34.915Z,2.05
2023-01-11T00:33:02.408Z,2.02
2023-01-11T00:35:31.824Z,1.95
2023-01-11T00:37:59.223Z,1.93
2023-01-11T00:40:26.632Z,1.92
2023-01-11T00:43:12.636Z,1.91
2023-01-11T00:45:58.999Z,1.94
2023-01-11T00:48:26.322Z,1.91
2023-01-11T00:50:59.499Z,1.89
2023-01-11T00:53:26.839Z,1.88
2023-01-11T00:55:54.105Z,1.86
2023-01-11T00:58:21.581Z,1.76
2023-01-11T01:00:48.867Z,1.84
2023-01-11T01:03:16.553Z,1.81
2023-01-11T01:05:43.913Z,1.79
2023-01-11T01:08:11.203Z,1.76
2023-01-11T01:10:38.425Z,1.69
2023-01-11T01:13:23.899Z,1.64
2023-01-11T01:15:58.332Z,1.64
2023-01-11T01:18:25.729Z,1.70
2023-01-11T01:20:53.029Z,1.66
2023-01-11T01:23:20.331Z,1.53
2023-01-11T01:25:47.564Z,1.54
2023-01-11T01:28:15.037Z,1.54
2023-01-11T01:30:42.528Z,1.47
2023-01-11T01:33:09.879Z,1.47
2023-01-11T01:35:38.032Z,1.45
2023-01-11T01:38:05.408Z,1.39
2023-01-11T01:40:32.841Z,1.34
2023-01-11T01:43:00.315Z,1.32
2023-01-11T01:45:28.402Z,1.31
2023-01-11T01:48:06.298Z,1.22
2023-01-11T01:50:40.706Z,1.22
2023-01-11T01:53:16.228Z,1.21
2023-01-11T01:55:51.664Z,1.22
2023-01-11T01:58:25.211Z,1.22
2023-01-11T02:00:52.938Z,1.14
2023-01-11T02:03:24.889Z,1.09
2023-01-11T02:05:53.361Z,1.03
2023-01-11T02:08:36.534Z,0.99
2023-01-11T02:11:24.422Z,0.99
2023-01-11T02:13:51.786Z,0.97
2023-01-11T02:16:19.010Z,0.92
2023-01-11T02:18:46.319Z,0.85
2023-01-11T02:21:47.205Z,0.88
2023-01-11T02:24:47.681Z,0.86
2023-01-11T02:27:33.644Z,0.85
2023-01-11T02:30:30.634Z,0.82
2023-01-11T02:33:14.344Z,0.86
2023-01-11T02:36:06.141Z,0.80
2023-01-11T02:39:19.439Z,0.71
2023-01-11T02:42:19.989Z,0.69
2023-01-11T02:45:22.624Z,0.68
2023-01-11T02:48:11.944Z,0.58
2023-01-11T02:50:48.718Z,0.54
2023-01-11T02:53:52.656Z,0.49
2023-01-11T02:56:28.542Z,0.38
2023-01-11T02:58:57.940Z,0.28
2023-01-11T03:01:25.229Z,0.24
2023-01-11T03:03:53.369Z,0.27
2023-01-11T03:06:31.442Z,0.09
2023-01-11T03:09:30.668Z,0.01
2023-01-11T03:12:41.358Z,-0.04
2023-01-11T03:15:53.463Z,-0.03
2023-01-11T03:18:35.569Z,-0.01
2023-01-11T03:21:42.258Z,-0.05
2023-01-11T03:24:46.556Z,-0.07
2023-01-11T03:27:33.229Z,-0.12
2023-01-11T03:30:33.382Z,-0.13
2023-01-11T03:33:14.259Z,-0.24
2023-01-11T03:36:20.964Z,-0.22
2023-01-11T03:39:02.740Z,-0.18
2023-01-11T03:41:35.419Z,-0.21
2023-01-11T03:44:07.420Z,-0.23
2023-01-11T03:46:46.731Z,-0.23
2023-01-11T03:49:36.525Z,-0.20
2023-01-11T03:52:08.838Z,-0.20
2023-01-11T03:54:36.687Z,-0.30
2023-01-11T03:57:35.959Z,-0.32
2023-01-11T04:00:05.868Z,-0.35
2023-01-11T04:02:38.595Z,-0.39
2023-01-11T04:05:08.888Z,-0.41
2023-01-11T04:07:36.326Z,-0.52
2023-01-11T04:10:05.155Z,-0.51
2023-01-11T04:12:34.497Z,-0.50
2023-01-11T04:15:05.047Z,-0.51
2023-01-11T04:17:32.353Z,-0.57
2023-01-11T04:19:59.607Z,-0.65
2023-01-11T04:22:26.919Z,-0.68
2023-01-11T04:24:54.286Z,-0.72
2023-01-11T04:27:21.556Z,-0.73
2023-01-11T04:29:48.708Z,-0.70
2023-01-11T04:32:16.004Z,-0.70
2023-01-11T04:34:43.578Z,-0.76
2023-01-11T04:37:11.534Z,-0.79
2023-01-11T04:39:38.796Z,-0.83
2023-01-11T04:42:17.996Z,-0.84
2023-01-11T04:44:50.528Z,-0.83
2023-01-11T04:47:20.869Z,-0.85
2023-01-11T04:49:48.188Z,-0.86
2023-01-11T04:52:18.650Z,-0.84
2023-01-11T04:54:46.729Z,-0.87
2023-01-11T04:57:16.593Z,-0.88
2023-01-11T04:59:46.212Z,-0.91
2023-01-11T05:02:14.517Z,-0.94
2023-01-11T05:04:42.026Z,-0.96
2023-01-11T05:07:09.922Z,-1.03
2023-01-11T05:09:37.559Z,-1.07
2023-01-11T05:12:04.850Z,-1.03
2023-01-11T05:14:32.106Z,-1.12
2023-01-11T05:16:59.281Z,-1.13
2023-01-11T05:19:26.567Z,-1.12
2023-01-11T05:21:53.736Z,-1.10
2023-01-11T05:24:20.998Z,-1.09
2023-01-11T05:26:49.671Z,-1.07
2023-01-11T05:29:18.658Z,-1.16
2023-01-11T05:31:46.267Z,-1.20
2023-01-11T05:34:14.547Z,-1.22
2023-01-11T05:36:42.626Z,-1.22
2023-01-11T05:39:13.079Z,-1.24
2023-01-11T05:41:40.472Z,-1.25
2023-01-11T05:44:30.347Z,-1.29
2023-01-11T05:46:58.139Z,-1.27
2023-01-11T05:49:25.461Z,-1.32
2023-01-11T05:51:52.715Z,-1.34
2023-01-11T05:54:20.219Z,-1.30
2023-01-11T05:56:47.559Z,-1.32
2023-01-11T05:59:14.915Z,-1.31
2023-01-11T06:01:42.637Z,-1.29
2023-01-11T06:04:09.872Z,-1.30
2023-01-11T06:06:37.061Z,-1.36
2023-01-11T06:09:04.472Z,-1.38
2023-01-11T06:11:31.690Z,-1.41
2023-01-11T06:13:58.938Z,-1.47
2023-01-11T06:16:26.163Z,-1.50
2023-01-11T06:18:54.012Z,-1.53
2023-01-11T06:21:21.606Z,-1.54
2023-01-11T06:23:50.422Z,-1.58
2023-01-11T06:26:21.088Z,-1.56
2023-01-11T06:28:49.997Z,-1.55
2023-01-11T06:31:18.460Z,-1.54
2023-01-11T06:33:46.630Z,-1.50
2023-01-11T06:36:15.521Z,-1.52
2023-01-11T06:38:43.782Z,-1.52
2023-01-11T06:41:12.882Z,-1.60
2023-01-11T06:43:41.224Z,-1.56
2023-01-11T06:46:13.965Z,-1.58
2023-01-11T06:48:41.572Z,-1.59
2023-01-11T06:51:12.292Z,-1.67
2023-01-11T06:53:41.569Z,-1.62
2023-01-11T06:56:15.411Z,-1.62
2023-01-11T06:58:43.526Z,-1.61
2023-01-11T07:01:12.300Z,-1.61
2023-01-11T07:03:41.062Z,-1.63
2023-01-11T07:06:08.424Z,-1.70
2023-01-11T07:08:35.838Z,-1.69
2023-01-11T07:11:03.581Z,-1.69
2023-01-11T07:13:30.883Z,-1.71
2023-01-11T07:15:58.078Z,-1.69
2023-01-11T07:18:25.274Z,-1.73
2023-01-11T07:20:52.317Z,-1.66
2023-01-11T07:23:19.494Z,-1.63
2023-01-11T07:25:49.300Z,-1.74
2023-01-11T07:28:16.445Z,-1.78
2023-01-11T07:30:59.951Z,-1.73
2023-01-11T07:33:27.544Z,-1.75
2023-01-11T07:35:55.214Z,-1.66
2023-01-11T07:38:22.484Z,-1.63
2023-01-11T07:40:49.693Z,-1.71
2023-01-11T07:43:19.432Z,-1.80
2023-01-11T07:45:49.075Z,-1.74
2023-01-11T07:48:25.670Z,-1.75
2023-01-11T07:50:53.257Z,-1.77
2023-01-11T07:53:21.583Z,-1.75
2023-01-11T07:55:48.616Z,-1.75
2023-01-11T07:58:15.894Z,-1.76
2023-01-11T08:00:43.006Z,-1.74
2023-01-11T08:03:10.484Z,-1.72
2023-01-11T08:05:37.811Z,-1.72
2023-01-11T08:08:06.179Z,-1.72
2023-01-11T08:10:34.104Z,-1.71
2023-01-11T08:13:20.153Z,-1.75
2023-01-11T08:15:47.401Z,-1.75
2023-01-11T08:18:14.580Z,-1.73
2023-01-11T08:20:41.736Z,-1.69
2023-01-11T08:23:09.790Z,-1.67
2023-01-11T08:25:37.552Z,-1.68
2023-01-11T08:28:07.154Z,-1.62
2023-01-11T08:30:35.635Z,-1.57
2023-01-11T08:33:04.618Z,-1.51
2023-01-11T08:35:38.006Z,-1.46
2023-01-11T08:38:05.352Z,-1.48
2023-01-11T08:40:33.644Z,-1.53
2023-01-11T08:43:00.692Z,-1.48
2023-01-11T08:45:28.156Z,-1.51
2023-01-11T08:47:55.481Z,-1.46
2023-01-11T08:50:22.741Z,-1.39
2023-01-11T08:52:50.689Z,-1.34
2023-01-11T08:55:19.501Z,-1.32
2023-01-11T08:57:47.041Z,-1.37
2023-01-11T09:00:14.920Z,-1.38
2023-01-11T09:02:42.138Z,-1.41
2023-01-11T09:05:09.746Z,-1.43
2023-01-11T09:07:37.031Z,-1.44
2023-01-11T09:10:04.984Z,-1.53
2023-01-11T09:12:32.303Z,-1.53
2023-01-11T09:14:59.632Z,-1.53
2023-01-11T09:17:27.094Z,-1.56
2023-01-11T09:19:54.275Z,-1.53
2023-01-11T09:22:21.437Z,-1.54
2023-01-11T09:24:48.656Z,-1.57
2023-01-11T09:27:15.917Z,-1.59
2023-01-11T09:29:43.173Z,-1.66
2023-01-11T09:32:10.461Z,-1.67
2023-01-11T09:34:38.625Z,-1.65
2023-01-11T09:37:06.244Z,-1.64
2023-01-11T09:39:34.418Z,-1.62
2023-01-11T09:42:16.595Z,-1.66
2023-01-11T09:44:58.251Z,-1.59
2023-01-11T09:47:47.919Z,-1.57
2023-01-11T09:50:23.121Z,-1.65
2023-01-11T09:52:54.403Z,-1.65
2023-01-11T09:55:35.558Z,-1.62
2023-01-11T09:58:37.355Z,-1.63
2023-01-11T10:01:38.289Z,-1.57
2023-01-11T10:04:36.148Z,-1.53
2023-01-11T10:07:22.434Z,-1.53
2023-01-11T10:18:38.956Z,-1.61
2023-01-11T10:19:48.649Z,-1.54
2023-01-11T10:22:42.060Z,-1.51
2023-01-11T10:25:14.801Z,-1.57
2023-01-11T10:27:58.282Z,-1.63
2023-01-11T10:30:33.945Z,-1.66
2023-01-11T10:33:39.455Z,-1.70
2023-01-11T10:36:20.290Z,-1.71
2023-01-11T10:39:13.388Z,-1.76
2023-01-11T10:41:56.707Z,-1.75
2023-01-11T10:44:49.265Z,-1.73
2023-01-11T10:47:23.316Z,-1.82
2023-01-11T10:49:57.156Z,-1.77
2023-01-11T10:52:47.387Z,-1.75
2023-01-11T10:55:35.048Z,-1.77
2023-01-11T10:58:29.612Z,-1.83
2023-01-11T11:01:26.573Z,-1.80
2023-01-11T11:04:08.524Z,-1.71
2023-01-11T11:06:58.289Z,-1.75
2023-01-11T11:09:40.194Z,-1.74
2023-01-11T11:12:23.407Z,-1.73
2023-01-11T11:15:36.882Z,-1.71
2023-01-11T11:18:04.444Z,-1.68
2023-01-11T11:20:34.406Z,-1.70
2023-01-11T11:23:01.732Z,-1.71
2023-01-11T11:25:38.186Z,-1.71
2023-01-11T11:28:23.063Z,-1.71
2023-01-11T11:30:54.130Z,-1.69
2023-01-11T11:33:40.711Z,-1.68
2023-01-11T11:36:11.553Z,-1.65
2023-01-11T11:38:42.367Z,-1.65
2023-01-11T11:41:17.104Z,-1.62
2023-01-11T11:43:47.515Z,-1.56
2023-01-11T11:46:18.749Z,-1.48
2023-01-11T11:49:17.416Z,-1.38
2023-01-11T11:51:47.290Z,-1.43
2023-01-11T11:54:40.914Z,-1.41
2023-01-11T11:57:25.777Z,-1.46
2023-01-11T12:00:25.715Z,-1.46
2023-01-11T12:03:15.374Z,-1.48
2023-01-11T12:06:02.216Z,-1.48
2023-01-11T12:08:33.412Z,-1.54
2023-01-11T12:11:07.486Z,-1.54
2023-01-11T12:13:37.772Z,-1.60
2023-01-11T12:16:19.760Z,-1.64
2023-01-11T12:18:47.099Z,-1.70
2023-01-11T12:21:23.738Z,-1.76
2023-01-11T12:24:18.627Z,-1.79
2023-01-11T12:27:20.655Z,-1.77
2023-01-11T12:30:04.546Z,-1.82
2023-01-11T12:32:50.428Z,-1.76
2023-01-11T12:35:55.563Z,-1.77
2023-01-11T12:38:39.170Z,-1.72
2023-01-11T12:41:49.656Z,-1.69
2023-01-11T12:45:12.229Z,-1.72
2023-01-11T12:47:57.776Z,-1.82
2023-01-11T12:50:42.004Z,-1.81
2023-01-11T12:53:50.320Z,-1.81
2023-01-11T12:56:38.951Z,-1.76
2023-01-11T12:59:26.964Z,-1.79
2023-01-11T13:02:13.757Z,-1.82
2023-01-11T13:04:59.553Z,-1.79
2023-01-11T13:07:53.719Z,-1.81
2023-01-11T13:10:46.032Z,-1.80
2023-01-11T13:13:57.219Z,-1.78
2023-01-11T13:16:45.833Z,-1.73
2023-01-11T13:19:21.630Z,-1.73
2023-01-11T13:21:55.078Z,-1.69
2023-01-11T13:24:29.809Z,-1.77
2023-01-11T13:27:16.073Z,-1.77
2023-01-11T13:29:46.965Z,-1.82
2023-01-11T13:32:22.015Z,-1.84
2023-01-11T13:35:03.154Z,-1.82
2023-01-11T13:37:50.658Z,-1.82
2023-01-11T13:40:28.949Z,-1.99
2023-01-11T13:43:13.615Z,-1.97
2023-01-11T13:45:55.067Z,-1.98
2023-01-11T13:48:31.219Z,-1.93
2023-01-11T13:51:26.031Z,-1.88
2023-01-11T13:53:55.945Z,-1.88
2023-01-11T13:56:28.083Z,-1.92
2023-01-11T13:59:21.442Z,-1.97
2023-01-11T14:02:04.288Z,-2.15
2023-01-11T14:05:16.156Z,-2.07
2023-01-11T14:07:49.228Z,-2.12
2023-01-11T14:10:35.488Z,-2.18
2023-01-11T14:13:02.569Z,-2.22
2023-01-11T14:15:58.937Z,-2.25
2023-01-11T14:18:46.611Z,-2.26
2023-01-11T14:21:44.956Z,-2.28
2023-01-11T14:24:13.846Z,-2.31
2023-01-11T14:27:27.368Z,-2.37
2023-01-11T14:30:20.675Z,-2.40
2023-01-11T14:33:02.582Z,-2.43
2023-01-11T14:35:47.643Z,-2.41
2023-01-11T14:38:36.762Z,-2.51
2023-01-11T14:41:52.867Z,-2.55
2023-01-11T14:44:48.191Z,-2.52
2023-01-11T14:47:36.668Z,-2.44
2023-01-11T14:50:18.086Z,-2.48
2023-01-11T14:52:46.712Z,-2.54
2023-01-11T14:55:27.488Z,-2.58
2023-01-11T14:58:28.789Z,-2.59
2023-01-11T15:00:55.752Z,-2.58
2023-01-11T15:03:22.753Z,-2.59
2023-01-11T15:05:54.898Z,-2.61
2023-01-11T15:08:27.881Z,-2.64
2023-01-11T15:11:04.889Z,-2.68
2023-01-11T15:13:59.120Z,-2.68
2023-01-11T15:16:50.563Z,-2.69
2023-01-11T15:19:27.145Z,-2.79
2023-01-11T15:21:56.421Z,-2.81
2023-01-11T15:24:56.395Z,-2.80
2023-01-11T15:27:36.218Z,-2.81
2023-01-11T15:30:29.732Z,-2.79
2023-01-11T15:33:18.548Z,-2.78
2023-01-11T15:35:57.476Z,-2.78
2023-01-11T15:38:51.600Z,-2.81
2023-01-11T15:41:51.707Z,-2.83
2023-01-11T15:44:56.064Z,-2.85
2023-01-11T15:47:30.214Z,-2.92
2023-01-11T15:50:34.356Z,-2.91
2023-01-11T15:53:28.050Z,-2.92
2023-01-11T15:56:46.213Z,-2.96
2023-01-11T15:59:56.731Z,-2.99
2023-01-11T16:03:05.648Z,-3.04
2023-01-11T16:05:41.002Z,-3.03
2023-01-11T16:08:34.496Z,-3.02
2023-01-11T16:11:12.688Z,-3.07
2023-01-11T16:13:58.837Z,-3.09
2023-01-11T16:16:39.434Z,-3.09
2023-01-11T16:19:19.503Z,-3.05
2023-01-11T16:21:55.912Z,-2.99
2023-01-11T16:24:28.962Z,-2.97
2023-01-11T16:27:01.446Z,-2.99
2023-01-11T16:29:34.397Z,-3.12
2023-01-11T16:32:06.298Z,-3.14
2023-01-11T16:34:43.045Z,-3.12
2023-01-11T16:37:37.641Z,-3.12
2023-01-11T16:40:20.301Z,-3.16
2023-01-11T16:43:13.873Z,-3.14
2023-01-11T16:45:47.515Z,-3.15
2023-01-11T16:48:21.032Z,-3.12
2023-01-11T16:51:15.902Z,-3.12
2023-01-11T16:53:46.470Z,-3.12
2023-01-11T16:56:21.879Z,-3.15
2023-01-11T16:59:15.794Z,-3.18
2023-01-11T17:01:54.925Z,-3.18
2023-01-11T17:04:51.112Z,-3.23
2023-01-11T17:07:21.098Z,-3.25
2023-01-11T17:09:48.154Z,-3.24
2023-01-11T17:12:25.680Z,-3.27
2023-01-11T17:15:11.886Z,-3.31
2023-01-11T17:17:39.290Z,-3.25
2023-01-11T17:20:19.842Z,-3.31
2023-01-11T17:22:53.315Z,-3.36
2023-01-11T17:25:43.596Z,-3.32
2023-01-11T17:28:21.486Z,-3.34
2023-01-11T17:30:54.327Z,-3.37
2023-01-11T17:33:35.961Z,-3.39
2023-01-11T17:36:05.044Z,-3.39
2023-01-11T17:38:33.537Z,-3.38
2023-01-11T17:41:30.227Z,-3.36
2023-01-11T17:44:16.049Z,-3.41
2023-01-11T17:46:43.343Z,-3.49
2023-01-11T17:49:23.375Z,-3.53
2023-01-11T17:51:50.640Z,-3.53
2023-01-11T17:54:22.445Z,-3.53
2023-01-11T17:56:59.844Z,-3.52
2023-01-11T17:59:30.806Z,-3.50
2023-01-11T18:02:03.260Z,-3.52
2023-01-11T18:04:31.254Z,-3.57
2023-01-11T18:07:16.086Z,-3.51
2023-01-11T18:09:55.950Z,-3.48
2023-01-11T18:12:29.683Z,-3.48
2023-01-11T18:15:04.146Z,-3.52
2023-01-11T18:17:44.030Z,-3.54
2023-01-11T18:20:14.548Z,-3.56
2023-01-11T18:22:53.616Z,-3.54
2023-01-11T18:25:27.464Z,-3.57
2023-01-11T18:28:27.038Z,-3.52
2023-01-11T18:30:58.661Z,-3.54
2023-01-11T18:33:31.243Z,-3.55
2023-01-11T18:36:03.753Z,-3.54
2023-01-11T18:38:34.370Z,-3.55
2023-01-11T18:41:27.730Z,-3.56
2023-01-11T18:43:55.250Z,-3.64
2023-01-11T18:46:22.485Z,-3.68
2023-01-11T18:48:49.816Z,-3.69
2023-01-11T18:51:35.339Z,-3.71
2023-01-11T18:54:02.413Z,-3.71
2023-01-11T18:56:29.392Z,-3.77
2023-01-11T18:58:56.484Z,-3.82
2023-01-11T19:01:23.914Z,-3.86
2023-01-11T19:03:51.064Z,-3.85
2023-01-11T19:06:20.487Z,-3.82
2023-01-11T19:08:47.608Z,-3.81
2023-01-11T19:11:16.207Z,-3.84
2023-01-11T19:13:44.513Z,-3.89
2023-01-11T19:16:13.473Z,-3.85
2023-01-11T19:18:40.563Z,-3.84
2023-01-11T19:21:08.784Z,-3.86
2023-01-11T19:23:35.926Z,-3.92
2023-01-11T19:26:03.140Z,-3.93
2023-01-11T19:28:30.665Z,-3.94
2023-01-11T19:30:57.950Z,-3.97
2023-01-11T19:33:25.635Z,-4.00
2023-01-11T19:35:52.660Z,-4.03
2023-01-11T19:38:19.902Z,-4.01
2023-01-11T19:40:50.303Z,-4.04
2023-01-11T19:43:17.814Z,-4.04
2023-01-11T19:45:44.825Z,-4.07
2023-01-11T19:48:11.835Z,-4.09
2023-01-11T19:50:38.900Z,-4.13
2023-01-11T19:53:05.896Z,-4.17
2023-01-11T19:55:33.009Z,-4.17
2023-01-11T19:58:02.128Z,-4.15
2023-01-11T20:00:29.466Z,-4.09
2023-01-11T20:02:56.632Z,-4.06
2023-01-11T20:05:23.779Z,-4.00
2023-01-11T20:07:50.813Z,-4.02
2023-01-11T20:10:17.945Z,-4.07
2023-01-11T20:12:44.961Z,-4.10
2023-01-11T20:15:12.054Z,-4.07
2023-01-11T20:17:39.189Z,-4.05
2023-01-11T20:20:07.350Z,-4.09
2023-01-11T20:22:34.527Z,-4.09
2023-01-11T20:25:01.701Z,-4.13
2023-01-11T20:27:28.776Z,-4.13
2023-01-11T20:29:55.838Z,-4.12
2023-01-11T20:32:40.421Z,-4.13
2023-01-11T20:35:09.898Z,-4.16
2023-01-11T20:37:36.926Z,-4.18
2023-01-11T20:40:04.776Z,-4.18
2023-01-11T20:42:31.870Z,-4.15
2023-01-11T20:44:59.049Z,-4.15
2023-01-11T20:47:26.031Z,-4.13
2023-01-11T20:49:53.050Z,-4.09
2023-01-11T20:52:20.127Z,-4.11
2023-01-11T20:54:47.147Z,-4.10
2023-01-11T20:57:14.246Z,-4.07
2023-01-11T20:59:41.258Z,-4.07
2023-01-11T21:02:10.473Z,-4.06
2023-01-11T21:04:37.571Z,-4.09
2023-01-11T21:07:04.656Z,-4.10
2023-01-11T21:09:31.719Z,-4.12
2023-01-11T21:11:58.696Z,-4.10
2023-01-11T21:14:25.784Z,-4.08
2023-01-11T21:16:54.695Z,-4.06
2023-01-11T21:19:22.440Z,-4.06
2023-01-11T21:21:49.859Z,-4.08
2023-01-11T21:24:17.050Z,-4.12
2023-01-11T21:26:44.966Z,-4.11
2023-01-11T21:29:12.596Z,-4.07
2023-01-11T21:31:41.347Z,-4.06
2023-01-11T21:34:11.987Z,-4.07
2023-01-11T21:36:40.405Z,-4.08
2023-01-11T21:39:08.720Z,-4.09
2023-01-11T21:41:54.274Z,-4.08
2023-01-11T21:44:28.197Z,-4.08
2023-01-11T21:46:55.355Z,-4.09
2023-01-11T21:49:23.691Z,-4.05
2023-01-11T21:51:51.637Z,-4.05
2023-01-11T21:54:19.259Z,-4.08
2023-01-11T21:56:47.140Z,-4.10
2023-01-11T21:59:14.803Z,-4.09
2023-01-11T22:01:44.860Z,-4.10
2023-01-11T22:04:14.366Z,-4.07
2023-01-11T22:06:56.840Z,-4.09
2023-01-11T22:09:29.397Z,-4.13
2023-01-11T22:11:56.507Z,-4.14
2023-01-11T22:14:23.879Z,-4.09
2023-01-11T22:16:52.012Z,-4.11
2023-01-11T22:19:19.346Z,-4.12
2023-01-11T22:21:46.696Z,-4.13
2023-01-11T22:24:13.801Z,-4.14
2023-01-11T22:26:41.199Z,-4.12
2023-01-11T22:29:12.118Z,-4.11
2023-01-11T22:31:50.300Z,-4.04
2023-01-11T22:34:18.255Z,-4.07
2023-01-11T22:36:46.340Z,-4.08
2023-01-11T22:39:15.347Z,-4.05
2023-01-11T22:41:44.875Z,-4.05
2023-01-11T22:44:13.008Z,-3.99
2023-01-11T22:46:40.138Z,-3.97
2023-01-11T22:49:08.405Z,-3.95
2023-01-11T22:51:35.699Z,-3.95
2023-01-11T22:54:03.970Z,-3.96
2023-01-11T22:56:31.283Z,-3.97
2023-01-11T22:58:59.316Z,-3.95
2023-01-11T23:01:35.707Z,-3.92
2023-01-11T23:04:03.995Z,-3.91
2023-01-11T23:06:35.148Z,-3.91
2023-01-11T23:09:03.046Z,-3.92
2023-01-11T23:11:54.425Z,-3.95
2023-01-11T23:14:21.998Z,-3.99
2023-01-11T23:16:49.928Z,-3.99
2023-01-11T23:19:19.769Z,-4.00
2023-01-11T23:21:47.492Z,-4.05
2023-01-11T23:24:16.385Z,-4.09
2023-01-11T23:26:44.721Z,-4.13
2023-01-11T23:29:12.281Z,-4.12
2023-01-11T23:31:39.374Z,-4.13
2023-01-11T23:34:07.879Z,-4.10
2023-01-11T23:36:38.520Z,-4.08
2023-01-11T23:39:09.562Z,-4.07
2023-01-11T23:41:54.859Z,-4.09
2023-01-11T23:44:23.110Z,-4.12
2023-01-11T23:47:09.444Z,-4.13
2023-01-11T23:49:36.691Z,-4.13
2023-01-11T23:52:04.774Z,-4.14
2023-01-11T23:54:33.543Z,-4.18
2023-01-11T23:57:02.193Z,-4.17
2023-01-11T23:59:30.048Z,-4.16
